Time;durP1;ratioP1;P1;durP2;ratioP2;P2;SDS_P1;SDS_P2;PMS_P1;PMS_P2;Temp;Humidity;BMP_temperature;BMP_pressure;BME280_temperature;BME280_humidity;BME280_pressure;Samples;Min_cycle;Max_cycle;Signal;HPM_P1;HPM_P2
2021/01/13 00:00:57;;;;;;;27.33;25.70;;;2.60;99.90;;;;;;5111050;28;20458;-78
2021/01/13 00:03:23;;;;;;;27.13;25.37;;;2.70;99.90;;;;;;5110238;28;20488;-77
2021/01/13 00:05:50;;;;;;;27.70;26.13;;;2.80;99.90;;;;;;5110819;28;20849;-78
2021/01/13 00:08:16;;;;;;;27.10;25.90;;;2.80;99.90;;;;;;5110779;28;20458;-79
2021/01/13 00:10:43;;;;;;;28.50;26.67;;;2.90;99.90;;;;;;5110319;28;20480;-78
2021/01/13 00:13:09;;;;;;;27.23;24.90;;;3.00;99.90;;;;;;5111005;28;20809;-78
2021/01/13 00:15:35;;;;;;;25.40;24.30;;;3.00;99.90;;;;;;5110088;28;20456;-79
2021/01/13 00:18:01;;;;;;;25.87;24.37;;;3.00;99.90;;;;;;5110344;28;20441;-78
2021/01/13 00:20:27;;;;;;;25.97;24.47;;;3.00;99.90;;;;;;5110556;28;20957;-78
2021/01/13 00:22:54;;;;;;;25.27;23.97;;;3.10;99.90;;;;;;5110099;28;20495;-78
2021/01/13 00:25:21;;;;;;;25.77;23.97;;;3.20;99.90;;;;;;5110213;28;20453;-78
2021/01/13 00:27:47;;;;;;;23.87;22.53;;;3.20;99.90;;;;;;5110488;28;20445;-78
2021/01/13 00:30:15;;;;;;;22.60;21.40;;;3.10;99.90;;;;;;5110310;28;20457;-77
2021/01/13 00:32:42;;;;;;;22.27;21.07;;;3.10;99.90;;;;;;5110617;28;20499;-76
2021/01/13 00:35:09;;;;;;;21.23;20.30;;;3.00;99.90;;;;;;5110358;28;20445;-76
2021/01/13 00:37:36;;;;;;;21.90;21.00;;;3.00;99.90;;;;;;5110086;28;20460;-76
2021/01/13 00:40:05;;;;;;;20.40;19.40;;;3.00;99.90;;;;;;5110396;28;20518;-77
2021/01/13 00:42:31;;;;;;;20.80;19.83;;;3.10;99.90;;;;;;5110171;28;20950;-77
2021/01/13 00:44:57;;;;;;;19.50;18.60;;;3.20;99.90;;;;;;5109979;28;20485;-77
2021/01/13 00:47:23;;;;;;;24.80;20.53;;;3.30;99.90;;;;;;5110419;28;20456;-76
2021/01/13 05:03:41;;;;;;;12.53;11.53;;;3.70;99.90;;;;;;5468310;23;21033;-80
2021/01/13 05:06:55;;;;;;;11.27;10.60;;;3.80;99.90;;;;;;4992562;28;20461;-79
2021/01/13 05:09:22;;;;;;;11.13;10.10;;;3.70;99.90;;;;;;4982737;28;20459;-79
2021/01/13 05:11:49;;;;;;;11.50;10.90;;;3.80;99.90;;;;;;4973977;28;20448;-79
2021/01/13 05:14:18;;;;;;;10.73;10.10;;;3.90;99.90;;;;;;4973866;28;20448;-78
2021/01/13 05:17:02;;;;;;;10.93;10.27;;;3.90;99.90;;;;;;4974067;28;20452;-78
2021/01/13 05:20:17;;;;;;;11.17;10.33;;;3.90;99.90;;;;;;4974250;28;20562;-75
2021/01/13 05:22:45;;;;;;;11.10;10.50;;;3.90;99.90;;;;;;4968177;28;20447;-78
2021/01/13 05:25:12;;;;;;;10.30;9.80;;;3.90;99.90;;;;;;4974195;28;20494;-78
2021/01/13 05:28:06;;;;;;;16.40;11.80;;;4.00;99.90;;;;;;4973920;28;20452;-78
2021/01/13 05:30:35;;;;;;;11.60;10.90;;;4.00;99.90;;;;;;4956256;28;20458;-77
2021/01/13 05:33:06;;;;;;;13.23;11.90;;;4.00;99.90;;;;;;4973633;28;20464;-77
2021/01/13 05:35:37;;;;;;;11.20;10.60;;;3.90;99.90;;;;;;4973665;28;20451;-79
2021/01/13 05:38:16;;;;;;;12.13;11.30;;;3.70;99.90;;;;;;4973983;28;20438;-79
2021/01/13 05:40:44;;;;;;;11.50;10.90;;;3.80;99.90;;;;;;4973682;28;20458;-80
2021/01/13 05:43:11;;;;;;;13.03;12.03;;;3.80;99.90;;;;;;4973839;28;20483;-81
2021/01/13 05:45:38;;;;;;;12.63;12.00;;;3.70;99.90;;;;;;4973548;28;20455;-82
2021/01/13 05:48:13;;;;;;;11.27;10.77;;;3.80;99.90;;;;;;4973341;28;20546;-82
2021/01/13 05:50:41;;;;;;;12.43;11.40;;;3.80;99.90;;;;;;4973658;28;20546;-81
2021/01/13 05:53:07;;;;;;;11.43;10.73;;;3.70;99.90;;;;;;4973682;28;20459;-81
2021/01/13 05:55:34;;;;;;;11.97;11.17;;;3.70;99.90;;;;;;4978364;28;20452;-81
2021/01/13 05:58:02;;;;;;;12.17;11.00;;;3.60;99.90;;;;;;4974997;28;20461;-79
2021/01/13 06:00:30;;;;;;;11.13;10.60;;;3.60;99.90;;;;;;4974651;28;20482;-82
2021/01/13 06:02:58;;;;;;;11.60;10.80;;;3.50;99.90;;;;;;4974383;28;20549;-82
2021/01/13 06:05:25;;;;;;;11.87;11.13;;;3.40;99.90;;;;;;4973958;28;20459;-82
2021/01/13 06:07:53;;;;;;;11.30;10.60;;;3.50;99.90;;;;;;4973797;28;20452;-81
2021/01/13 06:10:21;;;;;;;12.80;11.90;;;3.40;99.90;;;;;;4973014;28;20466;-81
2021/01/13 06:12:49;;;;;;;10.60;10.13;;;3.40;99.90;;;;;;4973164;28;20456;-81
2021/01/13 06:15:24;;;;;;;12.10;11.10;;;3.40;99.90;;;;;;4972969;28;20457;-81
2021/01/13 06:17:51;;;;;;;12.40;11.70;;;3.30;99.90;;;;;;4973249;28;20482;-81
2021/01/13 06:20:20;;;;;;;11.30;10.80;;;3.10;99.90;;;;;;4973231;28;20453;-81
2021/01/13 06:22:48;;;;;;;10.53;10.13;;;3.00;99.90;;;;;;4973084;28;20455;-81
2021/01/13 06:25:22;;;;;;;11.20;10.70;;;2.90;99.90;;;;;;4973402;28;20582;-80
2021/01/13 06:28:22;;;;;;;11.67;11.10;;;2.80;99.90;;;;;;4973055;28;20455;-79
2021/01/13 06:31:00;;;;;;;12.33;11.70;;;2.60;99.90;;;;;;4972727;28;20769;-79
2021/01/13 06:33:36;;;;;;;11.87;11.17;;;2.50;99.90;;;;;;4972969;28;20443;-79
2021/01/13 06:36:29;;;;;;;10.67;10.17;;;2.40;99.90;;;;;;4972773;28;20502;-79
2021/01/13 06:38:57;;;;;;;11.90;11.00;;;2.30;99.90;;;;;;4973037;28;20550;-77
2021/01/13 06:41:25;;;;;;;12.73;11.70;;;2.20;99.90;;;;;;4972812;28;20878;-77
2021/01/13 06:43:59;;;;;;;11.33;10.83;;;2.20;99.90;;;;;;4972356;28;20570;-79
2021/01/13 06:46:26;;;;;;;11.80;11.30;;;2.20;99.90;;;;;;4973047;28;20447;-78
2021/01/13 06:48:53;;;;;;;13.40;12.33;;;2.10;99.90;;;;;;4972511;28;20456;-78
2021/01/13 06:51:20;;;;;;;11.00;10.50;;;2.00;99.90;;;;;;4972449;28;20458;-81
2021/01/13 06:53:47;;;;;;;11.40;10.80;;;2.00;99.90;;;;;;4972580;28;20478;-79
2021/01/13 06:56:16;;;;;;;11.27;10.53;;;1.90;99.90;;;;;;4972429;28;20459;-78
2021/01/13 06:58:57;;;;;;;12.50;11.70;;;1.80;99.90;;;;;;4972541;28;20445;-79
2021/01/13 07:01:23;;;;;;;13.83;12.80;;;1.70;99.90;;;;;;4972391;28;20487;-80
2021/01/13 07:04:00;;;;;;;13.20;12.50;;;1.70;99.90;;;;;;4972020;28;20499;-80
2021/01/13 07:06:28;;;;;;;13.07;12.30;;;1.60;99.90;;;;;;4972915;28;20983;-82
2021/01/13 07:08:54;;;;;;;12.40;11.60;;;1.60;99.90;;;;;;4972668;28;20871;-79
2021/01/13 07:11:21;;;;;;;11.60;10.93;;;1.70;99.90;;;;;;4972126;28;20465;-79
2021/01/13 07:13:52;;;;;;;12.23;11.37;;;1.60;99.90;;;;;;4972339;28;20455;-79
2021/01/13 07:16:26;;;;;;;16.13;12.93;;;1.60;99.90;;;;;;4972178;28;20458;-84
2021/01/13 07:18:56;;;;;;;13.90;13.00;;;1.50;99.90;;;;;;4972498;28;20538;-83
2021/01/13 07:21:35;;;;;;;12.73;11.83;;;1.50;99.90;;;;;;4979118;28;20821;-84
2021/01/13 07:24:01;;;;;;;13.37;12.17;;;1.50;99.90;;;;;;4972399;28;20498;-85
2021/01/13 07:26:28;;;;;;;13.93;12.77;;;1.50;99.90;;;;;;4972744;28;20818;-86
2021/01/13 07:28:54;;;;;;;13.77;12.87;;;1.50;99.90;;;;;;4971695;28;20464;-85
2021/01/13 07:31:30;;;;;;;13.70;12.50;;;1.60;99.90;;;;;;4973810;28;20467;-88
2021/01/13 07:34:08;;;;;;;12.87;12.13;;;1.50;99.90;;;;;;4972887;28;20911;-87
2021/01/13 07:36:38;;;;;;;13.70;12.73;;;1.50;99.90;;;;;;4972750;28;20709;-90
2021/01/13 07:39:07;;;;;;;14.80;13.40;;;1.70;99.90;;;;;;4972420;28;20489;-87
2021/01/13 07:42:10;;;;;;;12.90;12.00;;;1.70;99.90;;;;;;4972050;28;20708;-81
2021/01/13 07:44:39;;;;;;;12.13;11.43;;;1.70;99.90;;;;;;4961727;28;20956;-84
2021/01/13 07:47:30;;;;;;;14.10;11.57;;;1.80;99.90;;;;;;4972262;28;20461;-80
2021/01/13 07:50:08;;;;;;;13.00;12.10;;;1.90;99.90;;;;;;4972235;28;20448;-86
2021/01/13 07:52:45;;;;;;;12.00;11.17;;;2.00;99.90;;;;;;4972270;28;20448;-82
2021/01/13 07:55:17;;;;;;;11.80;11.10;;;2.20;99.90;;;;;;4972187;28;20453;-81
2021/01/13 07:57:47;;;;;;;11.57;11.03;;;2.20;99.90;;;;;;4971534;28;20458;-82
2021/01/13 08:00:24;;;;;;;11.83;10.80;;;2.50;99.90;;;;;;4971366;28;20937;-78
2021/01/13 08:03:40;;;;;;;12.20;11.40;;;2.80;99.90;;;;;;4973400;28;20780;-81
2021/01/13 08:06:28;;;;;;;14.80;11.47;;;3.30;99.90;;;;;;4981303;28;20458;-82
2021/01/13 08:09:06;;;;;;;12.07;11.40;;;3.60;99.90;;;;;;4972082;28;20460;-83
2021/01/13 08:12:14;;;;;;;13.23;12.00;;;3.50;99.90;;;;;;4972277;28;20455;-83
2021/01/13 08:15:20;;;;;;;12.33;11.53;;;3.70;99.90;;;;;;4972227;28;20444;-83
2021/01/13 08:18:14;;;;;;;13.87;12.80;;;3.70;99.90;;;;;;4971786;28;20448;-83
2021/01/13 08:21:16;;;;;;;12.10;11.20;;;3.70;99.90;;;;;;4972122;28;20491;-84
2021/01/13 08:23:48;;;;;;;11.40;10.80;;;3.70;99.90;;;;;;4972147;28;20491;-84
2021/01/13 08:26:16;;;;;;;11.73;10.93;;;3.90;99.90;;;;;;4972188;28;20546;-84
2021/01/13 08:28:45;;;;;;;12.43;11.73;;;3.80;99.90;;;;;;4971827;28;20462;-83
2021/01/13 08:31:18;;;;;;;11.17;10.43;;;4.00;99.90;;;;;;4971673;28;20795;-85
2021/01/13 08:33:47;;;;;;;11.20;10.60;;;4.40;99.90;;;;;;4971700;28;20761;-85
2021/01/13 08:36:17;;;;;;;11.17;10.57;;;4.90;99.90;;;;;;4971848;28;20556;-86
2021/01/13 08:39:13;;;;;;;11.73;11.00;;;5.10;99.90;;;;;;4972584;28;20978;-85
2021/01/13 08:41:39;;;;;;;11.67;10.77;;;5.00;99.90;;;;;;4975823;28;20483;-87
2021/01/13 08:44:09;;;;;;;13.27;12.17;;;5.10;99.90;;;;;;4975798;28;20498;-88
2021/01/13 08:46:44;;;;;;;12.67;11.77;;;5.10;99.90;;;;;;4975823;28;20825;-88
2021/01/13 08:49:10;;;;;;;11.60;11.00;;;5.00;99.90;;;;;;4976321;28;20457;-88
2021/01/13 08:51:38;;;;;;;11.87;11.23;;;4.80;99.90;;;;;;4976165;28;20445;-88
2021/01/13 08:54:21;;;;;;;12.00;11.40;;;4.50;99.90;;;;;;4975841;28;20456;-86
2021/01/13 08:56:55;;;;;;;11.97;11.20;;;4.60;99.90;;;;;;4975965;28;20453;-84
2021/01/13 08:59:33;;;;;;;11.87;11.37;;;4.50;99.90;;;;;;4975537;28;20825;-84
2021/01/13 09:02:05;;;;;;;12.57;11.93;;;4.50;99.90;;;;;;4975169;28;20478;-84
2021/01/13 09:04:49;;;;;;;12.57;11.70;;;4.50;99.90;;;;;;4975035;28;20495;-84
2021/01/13 09:07:19;;;;;;;11.00;10.27;;;4.60;99.90;;;;;;4975657;28;20913;-85
2021/01/13 09:10:08;;;;;;;11.23;10.53;;;4.50;99.90;;;;;;4974762;28;20454;-80
2021/01/13 09:12:36;;;;;;;10.73;10.07;;;5.10;99.90;;;;;;4970280;28;21074;-79
2021/01/13 09:15:27;;;;;;;11.60;10.80;;;6.00;99.90;;;;;;4974880;28;20442;-83
2021/01/13 09:17:58;;;;;;;12.00;10.90;;;6.60;99.90;;;;;;4970989;28;20571;-80
2021/01/13 09:20:27;;;;;;;11.10;10.60;;;6.40;99.90;;;;;;4973264;28;20454;-80
2021/01/13 09:22:56;;;;;;;11.73;11.10;;;6.50;99.90;;;;;;4974600;28;20458;-85
2021/01/13 09:25:24;;;;;;;10.83;10.43;;;7.40;99.90;;;;;;4974991;28;20857;-84
2021/01/13 09:27:52;;;;;;;16.07;11.20;;;7.70;99.90;;;;;;4975175;28;20622;-84
2021/01/13 09:30:36;;;;;;;11.07;10.10;;;7.50;99.90;;;;;;4974678;28;20478;-84
2021/01/13 09:33:05;;;;;;;11.67;11.10;;;7.10;99.90;;;;;;4973402;28;20530;-85
2021/01/13 09:35:33;;;;;;;11.90;10.93;;;6.70;99.90;;;;;;4974682;28;20451;-85
2021/01/13 09:38:02;;;;;;;10.80;10.30;;;6.30;99.90;;;;;;4974499;28;20455;-84
2021/01/13 09:40:54;;;;;;;10.60;10.00;;;5.90;99.90;;;;;;4974435;28;20555;-83
2021/01/13 09:43:25;;;;;;;10.87;10.17;;;5.70;99.90;;;;;;4974428;28;20514;-84
2021/01/13 09:45:52;;;;;;;10.33;9.83;;;5.50;99.90;;;;;;4974122;28;20929;-84
2021/01/13 09:48:19;;;;;;;9.87;9.37;;;5.40;99.90;;;;;;4974303;28;20466;-83
2021/01/13 09:50:46;;;;;;;11.00;10.40;;;5.30;99.90;;;;;;4973564;28;20462;-83
2021/01/13 09:53:13;;;;;;;11.13;10.20;;;5.40;99.90;;;;;;4974102;28;20467;-83
2021/01/13 09:55:40;;;;;;;9.87;9.37;;;5.40;99.90;;;;;;4974398;28;20484;-82
2021/01/13 09:58:16;;;;;;;10.00;9.40;;;5.50;99.90;;;;;;4974418;28;20461;-83
2021/01/13 10:00:42;;;;;;;10.70;10.30;;;5.50;99.90;;;;;;4974257;28;20473;-83
2021/01/13 10:03:10;;;;;;;10.70;9.80;;;5.40;99.90;;;;;;4973800;28;20829;-84
2021/01/13 10:05:37;;;;;;;10.73;9.90;;;5.40;99.90;;;;;;4973903;28;20493;-81
2021/01/13 10:08:04;;;;;;;10.30;9.60;;;5.30;99.90;;;;;;4974209;28;20521;-84
2021/01/13 10:10:32;;;;;;;11.10;10.40;;;5.40;99.90;;;;;;4974734;28;20457;-79
2021/01/13 10:12:59;;;;;;;10.87;10.17;;;5.30;99.90;;;;;;4980233;28;20513;-81
2021/01/13 10:15:26;;;;;;;11.70;11.10;;;5.40;99.90;;;;;;4989021;28;20451;-83
2021/01/13 10:17:53;;;;;;;11.50;10.90;;;5.40;99.90;;;;;;4976314;28;20453;-83
2021/01/13 10:20:22;;;;;;;10.63;9.97;;;5.40;99.90;;;;;;4974894;28;20459;-83
2021/01/13 10:22:49;;;;;;;10.73;10.23;;;5.30;99.90;;;;;;4974438;28;21079;-82
2021/01/13 10:25:27;;;;;;;11.00;10.40;;;5.40;99.90;;;;;;4983372;28;20475;-89
2021/01/13 10:27:55;;;;;;;10.63;10.00;;;5.40;99.90;;;;;;4987149;28;20964;-83
2021/01/13 10:30:22;;;;;;;10.43;9.77;;;5.40;99.90;;;;;;4973312;28;20451;-79
2021/01/13 10:32:50;;;;;;;11.23;10.53;;;5.50;99.90;;;;;;4973163;28;20566;-84
2021/01/13 10:35:18;;;;;;;10.43;9.73;;;5.50;99.90;;;;;;4973679;28;20446;-84
2021/01/13 10:37:51;;;;;;;10.47;9.93;;;5.50;99.90;;;;;;4973683;28;20867;-84
2021/01/13 10:40:19;;;;;;;11.87;11.17;;;5.60;99.90;;;;;;4973416;28;20936;-81
2021/01/13 10:42:48;;;;;;;10.50;9.97;;;5.70;99.90;;;;;;4973065;28;20454;-75
2021/01/13 10:45:17;;;;;;;10.77;10.23;;;5.90;99.90;;;;;;4972838;28;20569;-72
2021/01/13 10:47:54;;;;;;;11.33;10.77;;;6.00;99.90;;;;;;4972715;28;20545;-80
2021/01/13 10:50:22;;;;;;;11.13;10.43;;;6.10;99.90;;;;;;4973418;28;20490;-81
2021/01/13 10:52:53;;;;;;;10.40;9.70;;;6.20;99.90;;;;;;4973050;28;20459;-81
2021/01/13 10:55:21;;;;;;;15.97;15.17;;;6.70;99.90;;;;;;4973184;28;20447;-65
2021/01/13 10:57:50;;;;;;;12.10;11.17;;;6.90;99.90;;;;;;4972565;28;20452;-77
2021/01/13 11:00:19;;;;;;;11.13;10.63;;;7.30;99.90;;;;;;4972548;28;20452;-73
2021/01/13 11:02:51;;;;;;;10.70;10.20;;;7.20;99.90;;;;;;4969543;28;20483;-74
2021/01/13 11:05:18;;;;;;;12.47;11.60;;;7.40;99.90;;;;;;4972622;28;20519;-75
2021/01/13 11:07:47;;;;;;;11.87;11.27;;;7.80;99.90;;;;;;4972506;28;20462;-73
2021/01/13 11:10:14;;;;;;;10.90;10.40;;;8.10;99.90;;;;;;4973306;28;20456;-74
2021/01/13 11:12:41;;;;;;;12.57;12.00;;;8.20;99.90;;;;;;4972690;28;20969;-72
2021/01/13 11:15:09;;;;;;;11.33;10.80;;;8.60;99.90;;;;;;4972439;28;20870;-75
2021/01/13 11:17:37;;;;;;;12.00;11.33;;;9.40;99.90;;;;;;4972313;28;20826;-78
2021/01/13 11:20:05;;;;;;;12.03;11.53;;;9.50;99.70;;;;;;4972318;28;20471;-73
2021/01/13 11:22:44;;;;;;;12.23;11.40;;;10.00;98.90;;;;;;4972106;28;20824;-76
2021/01/13 11:25:18;;;;;;;11.77;10.97;;;10.90;97.50;;;;;;4971815;28;20483;-77
2021/01/13 11:27:52;;;;;;;11.70;11.20;;;11.10;96.70;;;;;;4972224;28;20481;-76
2021/01/13 11:30:20;;;;;;;12.13;11.53;;;10.50;96.20;;;;;;4971902;28;20474;-67
2021/01/13 11:32:52;;;;;;;12.00;11.00;;;9.90;97.80;;;;;;4971854;28;20518;-75
2021/01/13 11:35:26;;;;;;;12.20;11.33;;;9.10;97.90;;;;;;4971842;28;20470;-75
2021/01/13 11:38:13;;;;;;;11.30;10.70;;;8.80;98.90;;;;;;4971601;28;20468;-75
2021/01/13 11:40:54;;;;;;;11.30;10.80;;;8.60;98.90;;;;;;4971899;28;20455;-74
2021/01/13 11:43:51;;;;;;;10.73;10.13;;;8.30;99.90;;;;;;4971987;28;20460;-74
2021/01/13 11:46:22;;;;;;;11.47;10.80;;;8.50;99.90;;;;;;4971812;28;20482;-74
2021/01/13 11:49:14;;;;;;;11.30;10.80;;;9.10;99.30;;;;;;4971663;28;20448;-74
2021/01/13 11:51:43;;;;;;;11.90;11.10;;;9.20;99.10;;;;;;4972007;28;20891;-74
2021/01/13 11:54:11;;;;;;;12.07;10.90;;;8.70;99.10;;;;;;4971786;28;20451;-74
2021/01/13 11:56:37;;;;;;;11.33;10.80;;;9.10;99.40;;;;;;4971734;28;20451;-74
2021/01/13 11:59:03;;;;;;;10.97;10.47;;;8.90;99.00;;;;;;4971241;28;20958;-74
2021/01/13 12:01:32;;;;;;;10.77;10.23;;;8.30;99.40;;;;;;4971247;28;20476;-74
2021/01/13 12:04:01;;;;;;;10.77;10.27;;;7.90;99.30;;;;;;4971382;28;20898;-74
2021/01/13 12:06:27;;;;;;;10.30;9.90;;;7.90;99.90;;;;;;4971618;28;20456;-73
2021/01/13 12:08:53;;;;;;;9.90;9.30;;;7.70;99.80;;;;;;4977944;28;20509;-72
2021/01/13 12:11:21;;;;;;;10.27;9.87;;;7.40;99.90;;;;;;4990797;28;20451;-75
2021/01/13 12:13:48;;;;;;;10.10;9.70;;;7.20;99.90;;;;;;4990337;28;20454;-73
2021/01/13 12:16:16;;;;;;;10.20;9.50;;;7.30;99.90;;;;;;4991027;28;20454;-73
2021/01/13 12:18:47;;;;;;;11.07;10.37;;;7.50;99.90;;;;;;4991050;28;20517;-74
2021/01/13 12:21:29;;;;;;;9.80;9.40;;;7.40;99.90;;;;;;4984670;28;20936;-74
2021/01/13 12:23:58;;;;;;;10.60;9.97;;;7.50;99.90;;;;;;4976603;28;20576;-74
2021/01/13 12:26:30;;;;;;;9.60;9.20;;;7.50;99.90;;;;;;4971426;28;20439;-73
2021/01/13 12:28:58;;;;;;;9.90;9.50;;;7.40;99.90;;;;;;4960391;28;20486;-74
2021/01/13 12:31:34;;;;;;;10.40;9.70;;;7.40;99.90;;;;;;4952153;29;20487;-73
2021/01/13 12:34:00;;;;;;;9.97;9.47;;;7.40;99.90;;;;;;4952272;29;20807;-73
2021/01/13 12:36:28;;;;;;;10.73;9.87;;;7.70;99.90;;;;;;4954736;28;20447;-74
2021/01/13 12:38:56;;;;;;;11.07;10.23;;;7.80;99.90;;;;;;4971306;28;20826;-74
2021/01/13 12:41:25;;;;;;;10.60;10.00;;;7.90;99.90;;;;;;4970929;28;20534;-74
2021/01/13 12:43:52;;;;;;;11.00;10.03;;;7.80;99.50;;;;;;4971065;28;20456;-73
2021/01/13 12:46:27;;;;;;;9.90;9.50;;;7.70;99.90;;;;;;4971195;28;20455;-73
2021/01/13 12:48:53;;;;;;;10.90;10.30;;;7.50;99.90;;;;;;4971138;28;21073;-74
2021/01/13 12:51:19;;;;;;;10.20;9.80;;;7.50;99.90;;;;;;4970840;28;20470;-73
2021/01/13 12:53:46;;;;;;;9.83;9.33;;;7.60;99.90;;;;;;4966266;28;20461;-73
2021/01/13 12:56:23;;;;;;;10.30;9.70;;;7.70;99.90;;;;;;4951893;29;20470;-74
2021/01/13 12:58:50;;;;;;;10.87;10.13;;;7.50;99.50;;;;;;4952132;29;20457;-74
2021/01/13 13:01:16;;;;;;;9.30;8.90;;;7.20;99.90;;;;;;4951208;29;20476;-75
2021/01/13 13:03:42;;;;;;;10.87;9.90;;;7.40;99.90;;;;;;4951445;29;20491;-74
2021/01/13 13:06:09;;;;;;;10.57;9.87;;;7.50;99.90;;;;;;4952075;29;20459;-74
2021/01/13 13:08:35;;;;;;;9.90;9.40;;;7.50;99.70;;;;;;4956427;28;20515;-74
2021/01/13 13:11:08;;;;;;;10.00;9.60;;;7.60;99.10;;;;;;4960765;28;20444;-75
2021/01/13 13:13:34;;;;;;;9.50;9.10;;;7.50;99.70;;;;;;4960963;28;20926;-74
2021/01/13 13:16:00;;;;;;;9.87;9.30;;;7.50;99.40;;;;;;4958948;28;20441;-74
2021/01/13 13:18:26;;;;;;;10.10;9.60;;;7.20;98.70;;;;;;4958358;28;20950;-75
2021/01/13 13:20:53;;;;;;;10.30;9.80;;;7.00;98.90;;;;;;4962905;28;20506;-74
2021/01/13 13:23:19;;;;;;;10.60;10.00;;;6.90;99.80;;;;;;4970372;28;20455;-75
2021/01/13 13:25:45;;;;;;;9.97;9.37;;;7.20;99.90;;;;;;4961224;28;20842;-74
2021/01/13 13:28:12;;;;;;;9.70;9.33;;;7.30;99.10;;;;;;4963338;28;20456;-73
2021/01/13 13:30:38;;;;;;;9.70;9.33;;;7.40;98.20;;;;;;4962662;28;20440;-74
2021/01/13 13:33:05;;;;;;;9.53;9.13;;;7.20;98.20;;;;;;4964064;28;20440;-74
2021/01/13 13:35:31;;;;;;;9.90;9.50;;;7.20;98.70;;;;;;4962743;28;21026;-74
2021/01/13 13:37:57;;;;;;;10.77;10.17;;;7.10;98.20;;;;;;4962206;28;20878;-75
2021/01/13 13:40:23;;;;;;;9.80;9.40;;;6.80;97.30;;;;;;4963570;28;20458;-75
2021/01/13 13:42:50;;;;;;;9.47;9.10;;;6.70;97.80;;;;;;4961885;28;20451;-74
2021/01/13 13:45:19;;;;;;;9.20;8.70;;;6.50;97.80;;;;;;4961851;28;20482;-74
2021/01/13 13:47:45;;;;;;;10.17;9.67;;;6.30;98.60;;;;;;4964076;28;20457;-75
2021/01/13 13:50:11;;;;;;;9.53;9.20;;;6.20;98.70;;;;;;4962692;28;20456;-75
2021/01/13 13:52:38;;;;;;;9.40;8.90;;;6.10;99.30;;;;;;4962430;28;20514;-74
2021/01/13 13:55:06;;;;;;;9.30;9.00;;;6.20;99.50;;;;;;4963761;28;20447;-73
2021/01/13 13:57:32;;;;;;;9.83;9.43;;;6.30;99.40;;;;;;4962819;28;20451;-72
2021/01/13 13:59:58;;;;;;;10.23;9.83;;;6.40;98.90;;;;;;4961619;28;20460;-74
2021/01/13 14:02:26;;;;;;;9.60;9.30;;;6.40;98.80;;;;;;4963042;28;20479;-72
2021/01/13 14:04:52;;;;;;;10.50;10.00;;;6.40;98.80;;;;;;4962304;28;20487;-73
2021/01/13 14:07:18;;;;;;;9.37;8.80;;;6.20;99.20;;;;;;4970132;28;20447;-73
2021/01/13 14:09:44;;;;;;;10.17;9.43;;;6.10;99.30;;;;;;4973363;28;20792;-74
2021/01/13 14:12:11;;;;;;;10.17;9.77;;;6.10;99.30;;;;;;4973985;28;20478;-74
2021/01/13 14:14:37;;;;;;;9.10;8.80;;;5.80;99.80;;;;;;4973220;28;20448;-73
2021/01/13 14:17:03;;;;;;;10.30;9.70;;;5.60;99.90;;;;;;4973436;28;20977;-74
2021/01/13 14:19:30;;;;;;;9.80;9.40;;;5.60;99.70;;;;;;4973688;28;20452;-74
2021/01/13 14:21:56;;;;;;;9.83;9.40;;;5.50;99.80;;;;;;4973696;28;20454;-72
2021/01/13 14:24:23;;;;;;;10.00;9.50;;;5.50;99.90;;;;;;4973360;28;20493;-74
2021/01/13 14:26:49;;;;;;;9.87;9.47;;;5.50;99.90;;;;;;4973431;28;20457;-75
2021/01/13 14:29:15;;;;;;;10.00;9.43;;;5.50;99.90;;;;;;4973444;28;20462;-74
2021/01/13 14:31:41;;;;;;;9.70;9.30;;;5.40;99.90;;;;;;4973528;28;20932;-73
2021/01/13 14:34:08;;;;;;;9.83;9.40;;;5.30;99.90;;;;;;4968682;28;20460;-74
2021/01/13 14:36:35;;;;;;;9.87;9.27;;;5.30;99.90;;;;;;4962045;28;20820;-74
2021/01/13 14:39:01;;;;;;;9.43;8.90;;;5.30;99.90;;;;;;4960641;28;20458;-74
2021/01/13 14:41:29;;;;;;;10.40;9.90;;;5.30;99.90;;;;;;4962906;28;20451;-74
2021/01/13 14:43:55;;;;;;;9.77;9.33;;;5.20;99.90;;;;;;4962787;28;20445;-73
2021/01/13 14:46:22;;;;;;;9.20;8.90;;;5.20;99.90;;;;;;4966829;28;20931;-74
2021/01/13 14:48:48;;;;;;;10.07;9.57;;;5.20;99.90;;;;;;4972614;28;20466;-73
2021/01/13 14:51:14;;;;;;;8.97;8.67;;;5.20;99.90;;;;;;4973092;28;20450;-73
2021/01/13 14:53:41;;;;;;;10.57;9.93;;;5.10;99.90;;;;;;4972991;28;20464;-72
2021/01/13 14:56:07;;;;;;;9.53;9.03;;;5.10;99.90;;;;;;4972853;28;20790;-73
2021/01/13 14:58:34;;;;;;;10.17;9.67;;;5.00;99.90;;;;;;4972555;28;20522;-73
2021/01/13 15:01:00;;;;;;;9.50;9.00;;;5.00;99.90;;;;;;4972189;28;20489;-73
2021/01/13 15:03:26;;;;;;;10.40;9.90;;;4.90;99.90;;;;;;4972296;28;20502;-73
2021/01/13 15:05:53;;;;;;;9.07;8.50;;;4.80;99.90;;;;;;4972195;28;20488;-74
2021/01/13 15:08:19;;;;;;;8.90;8.60;;;4.80;99.90;;;;;;4971626;28;20512;-73
2021/01/13 15:10:46;;;;;;;8.77;8.30;;;4.60;99.90;;;;;;4972055;28;20455;-73
2021/01/13 15:13:12;;;;;;;9.20;8.83;;;4.60;99.90;;;;;;4971344;28;20461;-73
2021/01/13 15:15:38;;;;;;;9.70;9.00;;;4.60;99.90;;;;;;4971724;28;20460;-74
2021/01/13 15:18:05;;;;;;;10.50;9.70;;;4.60;99.90;;;;;;4971432;28;20497;-74
2021/01/13 15:20:31;;;;;;;9.80;9.10;;;4.60;99.90;;;;;;4971158;28;20452;-73
2021/01/13 15:22:57;;;;;;;8.87;8.47;;;4.60;99.90;;;;;;4971621;28;20858;-73
2021/01/13 15:25:24;;;;;;;8.83;8.47;;;4.60;99.90;;;;;;4971435;28;20498;-73
2021/01/13 15:27:51;;;;;;;11.20;10.33;;;4.70;99.90;;;;;;4971569;28;20516;-73
2021/01/13 15:30:18;;;;;;;9.73;9.40;;;4.60;99.90;;;;;;4971165;28;20458;-73
2021/01/13 15:32:44;;;;;;;10.23;9.53;;;4.60;99.90;;;;;;4971354;28;20459;-73
2021/01/13 15:35:10;;;;;;;10.50;10.00;;;4.60;99.90;;;;;;4971199;28;20465;-72
2021/01/13 15:37:37;;;;;;;10.70;9.93;;;4.50;99.90;;;;;;4971305;28;20459;-73
2021/01/13 15:40:05;;;;;;;10.20;9.70;;;4.50;99.90;;;;;;4971008;28;20459;-73
2021/01/13 15:42:31;;;;;;;10.20;9.80;;;4.50;99.90;;;;;;4971027;28;20452;-72
2021/01/13 15:44:59;;;;;;;11.03;10.53;;;4.50;99.90;;;;;;4970945;28;20494;-72
2021/01/13 15:47:25;;;;;;;11.50;10.90;;;4.50;99.90;;;;;;4971151;28;20448;-73
2021/01/13 15:49:52;;;;;;;10.40;10.00;;;4.50;99.90;;;;;;4970534;28;20516;-72
2021/01/13 15:52:19;;;;;;;10.40;9.70;;;4.60;99.90;;;;;;4971052;28;20460;-73
2021/01/13 15:54:45;;;;;;;11.60;10.80;;;4.60;99.90;;;;;;4971079;28;20454;-74
2021/01/13 15:57:16;;;;;;;11.10;10.50;;;4.70;99.90;;;;;;4970687;28;20463;-74
2021/01/13 15:59:53;;;;;;;11.20;10.60;;;4.80;99.90;;;;;;4971378;28;20452;-74
2021/01/13 16:02:20;;;;;;;11.30;10.40;;;4.80;99.90;;;;;;4968644;28;21035;-71
2021/01/13 16:04:47;;;;;;;10.97;10.40;;;4.80;99.90;;;;;;4964882;28;20506;-73
2021/01/13 16:07:16;;;;;;;10.33;9.80;;;4.70;99.90;;;;;;4952541;29;20455;-73
2021/01/13 16:09:43;;;;;;;12.03;11.23;;;4.60;99.90;;;;;;4952367;28;20456;-73
2021/01/13 16:12:15;;;;;;;11.10;10.33;;;4.50;99.90;;;;;;4952328;29;20458;-73
2021/01/13 16:14:44;;;;;;;11.10;10.40;;;4.30;99.90;;;;;;4952563;29;20520;-73
2021/01/13 16:17:11;;;;;;;11.10;10.50;;;4.20;99.90;;;;;;4952249;29;20453;-73
2021/01/13 16:19:38;;;;;;;11.73;10.93;;;4.10;99.90;;;;;;4952178;29;20768;-73
2021/01/13 16:22:05;;;;;;;11.83;10.70;;;4.10;99.90;;;;;;4952076;29;20457;-74
2021/01/13 16:24:32;;;;;;;11.73;10.77;;;4.10;99.90;;;;;;4951748;29;20489;-74
2021/01/13 16:26:58;;;;;;;13.87;12.50;;;4.00;99.90;;;;;;4952221;29;20824;-73
2021/01/13 16:29:25;;;;;;;11.87;10.77;;;4.00;99.90;;;;;;4952039;29;20461;-74
2021/01/13 16:31:52;;;;;;;14.00;11.80;;;3.90;99.90;;;;;;4952012;29;20469;-74
2021/01/13 16:34:19;;;;;;;12.50;11.77;;;3.90;99.90;;;;;;4952143;29;20631;-74
2021/01/13 16:36:49;;;;;;;11.73;10.83;;;3.90;99.90;;;;;;4951850;29;20484;-75
2021/01/13 16:39:15;;;;;;;12.03;11.10;;;3.90;99.90;;;;;;4951992;29;20483;-75
2021/01/13 16:41:44;;;;;;;12.20;11.30;;;3.90;99.90;;;;;;4952335;29;20450;-75
2021/01/13 16:44:20;;;;;;;11.93;11.23;;;3.90;99.90;;;;;;4951699;29;20977;-74
2021/01/13 16:46:47;;;;;;;18.57;12.67;;;3.90;99.90;;;;;;4951774;29;20453;-73
2021/01/13 16:49:13;;;;;;;14.87;13.23;;;3.90;99.90;;;;;;4951696;29;20517;-73
2021/01/13 16:51:48;;;;;;;11.47;10.63;;;3.90;99.90;;;;;;4951806;29;20585;-75
2021/01/13 16:54:15;;;;;;;10.60;10.10;;;3.90;99.90;;;;;;4951891;29;20475;-72
2021/01/13 16:56:45;;;;;;;18.73;15.47;;;3.90;99.90;;;;;;4951835;29;20456;-73
2021/01/13 16:59:14;;;;;;;17.43;15.77;;;3.90;99.90;;;;;;4951998;29;20540;-73
2021/01/13 17:01:43;;;;;;;18.07;16.37;;;3.90;99.90;;;;;;4955702;28;20565;-74
2021/01/13 17:04:10;;;;;;;15.07;13.77;;;3.90;99.90;;;;;;4955112;29;20490;-74
2021/01/13 17:06:36;;;;;;;16.73;15.30;;;3.90;99.90;;;;;;4955636;29;20472;-74
2021/01/13 17:09:04;;;;;;;13.03;12.20;;;3.90;99.90;;;;;;4955849;29;20456;-74
2021/01/13 17:11:34;;;;;;;12.80;12.00;;;3.90;99.90;;;;;;4955181;28;20982;-74